Time;durP1;ratioP1;P1;durP2;ratioP2;P2;SDS_P1;SDS_P2;PMS_P1;PMS_P2;Temp;Humidity;BMP_temperature;BMP_pressure;BME280_temperature;BME280_humidity;BME280_pressure;Samples;Min_cycle;Max_cycle;Signal;HPM_P1;HPM_P2
2022/02/25 00:06:06;;;;;;;6.63;0.73;;;4.00;99.90;;;;;;20662534;28;20050;-44
2022/02/25 00:16:07;;;;;;;5.47;1.10;;;4.10;99.90;;;;;;20648008;28;20045;-44
2022/02/25 00:26:09;;;;;;;1.55;0.40;;;4.10;99.90;;;;;;20666462;28;20046;-45
2022/02/25 00:36:10;;;;;;;5.82;0.50;;;4.10;99.90;;;;;;20649269;28;20038;-44
2022/02/25 00:46:11;;;;;;;1.83;0.35;;;4.20;99.90;;;;;;20650081;28;20419;-44
2022/02/25 00:56:12;;;;;;;2.40;0.40;;;4.10;99.90;;;;;;20647122;28;20042;-45
2022/02/25 01:06:14;;;;;;;1.17;0.22;;;4.00;99.90;;;;;;20641933;28;20444;-44
2022/02/25 01:16:15;;;;;;;0.88;0.25;;;4.10;99.90;;;;;;20643106;28;20049;-45
2022/02/25 01:26:16;;;;;;;2.40;0.75;;;4.10;99.90;;;;;;20652695;28;20043;-44
2022/02/25 01:36:18;;;;;;;4.05;0.90;;;4.10;99.90;;;;;;20652781;28;20069;-45
2022/02/25 01:46:19;;;;;;;5.43;0.45;;;4.30;99.90;;;;;;20647529;28;20042;-44
2022/02/25 01:56:20;;;;;;;2.03;0.43;;;4.50;99.90;;;;;;20647257;28;20033;-44
2022/02/25 02:06:21;;;;;;;2.65;0.25;;;4.50;99.90;;;;;;20652672;28;20050;-44
2022/02/25 02:16:23;;;;;;;3.53;0.30;;;4.50;99.90;;;;;;20659773;28;20040;-44
2022/02/25 02:26:26;;;;;;;3.28;0.47;;;4.50;99.90;;;;;;20677378;28;20050;-45
2022/02/25 02:36:27;;;;;;;1.88;0.35;;;4.50;99.90;;;;;;20669944;28;20053;-45
2022/02/25 02:46:32;;;;;;;0.82;0.75;;;4.50;99.90;;;;;;20659997;28;20046;-44
2022/02/25 02:56:33;;;;;;;0.88;0.35;;;4.40;99.90;;;;;;20671919;28;20049;-45
2022/02/25 03:06:34;;;;;;;1.70;0.68;;;4.30;99.90;;;;;;20658603;28;22635;-44
2022/02/25 03:16:35;;;;;;;5.47;1.20;;;4.30;99.90;;;;;;20671820;28;20046;-44
2022/02/25 03:26:36;;;;;;;2.88;1.63;;;4.40;99.90;;;;;;20676962;28;20061;-44
2022/02/25 03:36:37;;;;;;;1.73;0.57;;;4.40;99.90;;;;;;20668629;28;20042;-44
2022/02/25 03:46:39;;;;;;;1.92;0.13;;;4.30;99.90;;;;;;20657376;28;20050;-45
2022/02/25 03:56:40;;;;;;;0.90;0.30;;;3.90;99.90;;;;;;20665713;28;20046;-44
2022/02/25 04:06:41;;;;;;;3.03;1.38;;;3.80;99.90;;;;;;20670455;28;20046;-44
2022/02/25 04:16:42;;;;;;;6.63;0.85;;;3.70;99.90;;;;;;20674319;28;20220;-44
2022/02/25 04:26:43;;;;;;;4.10;0.40;;;3.70;99.90;;;;;;20657900;28;20042;-44
2022/02/25 04:36:45;;;;;;;0.55;0.25;;;3.80;99.90;;;;;;20660270;28;20588;-44
2022/02/25 04:46:46;;;;;;;5.07;0.90;;;3.80;99.90;;;;;;20658598;28;20050;-44
2022/02/25 04:56:47;;;;;;;0.75;0.32;;;3.80;99.90;;;;;;20665966;28;20513;-45
2022/02/25 05:06:48;;;;;;;1.08;0.63;;;3.80;99.90;;;;;;20664083;28;20593;-44
2022/02/25 05:27:09;;;;;;;2.33;1.15;;;4.00;99.90;;;;;;20664291;28;20049;-45
2022/02/25 05:37:10;;;;;;;6.88;0.77;;;4.10;99.90;;;;;;20657296;28;20446;-44
2022/02/25 05:47:13;;;;;;;5.13;0.50;;;4.10;99.90;;;;;;20671913;28;20551;-45
2022/02/25 05:57:15;;;;;;;3.63;0.30;;;4.30;99.90;;;;;;20675732;28;20513;-45
2022/02/25 06:07:17;;;;;;;2.78;0.43;;;4.40;99.90;;;;;;20679817;28;20064;-45
2022/02/25 06:17:20;;;;;;;5.57;0.60;;;4.50;99.90;;;;;;20682848;28;20042;-45
2022/02/25 06:27:21;;;;;;;4.50;0.95;;;4.70;99.90;;;;;;20676207;28;20046;-45
2022/02/25 06:37:22;;;;;;;6.80;0.77;;;4.80;99.90;;;;;;20666937;28;20046;-45
2022/02/25 06:47:23;;;;;;;2.03;0.60;;;4.90;99.90;;;;;;20675763;28;20046;-45
2022/02/25 06:57:24;;;;;;;3.20;0.70;;;5.00;99.90;;;;;;20667013;28;20038;-44
2022/02/25 07:07:25;;;;;;;1.30;0.32;;;5.20;99.90;;;;;;20679528;28;20643;-45
2022/02/25 07:17:26;;;;;;;1.48;0.50;;;5.20;99.90;;;;;;20666994;28;20244;-44
2022/02/25 07:27:28;;;;;;;1.05;0.60;;;5.30;99.90;;;;;;20682642;28;20645;-45
2022/02/25 07:37:32;;;;;;;4.47;0.52;;;5.30;99.90;;;;;;20673177;28;21049;-44
2022/02/25 07:47:33;;;;;;;3.00;0.70;;;5.40;99.90;;;;;;20652866;28;20499;-44
2022/02/25 07:57:37;;;;;;;2.25;0.63;;;5.60;99.90;;;;;;20675642;28;20034;-45
2022/02/25 08:07:39;;;;;;;4.47;0.77;;;5.70;99.90;;;;;;20660475;28;20061;-44
2022/02/25 08:17:40;;;;;;;8.43;0.82;;;5.80;99.90;;;;;;20650654;28;20073;-44
2022/02/25 08:27:43;;;;;;;7.97;0.60;;;6.20;99.90;;;;;;20666484;28;20050;-44
2022/02/25 08:37:45;;;;;;;5.43;0.68;;;6.50;99.90;;;;;;20668579;28;20038;-45
2022/02/25 08:47:47;;;;;;;11.30;1.63;;;6.70;99.90;;;;;;20673030;28;20054;-44
2022/02/25 08:57:48;;;;;;;2.35;0.75;;;6.60;99.90;;;;;;20655995;28;20042;-44
2022/02/25 09:07:51;;;;;;;5.43;0.52;;;6.50;99.90;;;;;;20661948;28;20053;-44
2022/02/25 09:17:57;;;;;;;3.95;0.55;;;6.50;99.90;;;;;;20666995;28;20076;-44
2022/02/25 09:27:59;;;;;;;4.07;0.63;;;6.70;99.90;;;;;;20689930;28;20077;-44
2022/02/25 09:38:01;;;;;;;5.68;0.95;;;6.70;99.90;;;;;;20678292;28;20041;-44
2022/02/25 09:48:02;;;;;;;3.47;0.55;;;6.80;99.90;;;;;;20669296;28;20116;-45
2022/02/25 09:58:06;;;;;;;1.40;0.45;;;7.10;99.90;;;;;;20677209;28;21441;-44
2022/02/25 10:08:14;;;;;;;1.80;0.70;;;7.40;99.90;;;;;;20668404;28;20414;-44
2022/02/25 10:18:22;;;;;;;3.72;0.90;;;7.60;99.90;;;;;;20671120;28;20318;-45
2022/02/25 10:28:31;;;;;;;2.17;0.70;;;8.00;99.90;;;;;;20684553;28;20049;-45
2022/02/25 10:38:37;;;;;;;1.92;0.60;;;7.90;99.90;;;;;;20683539;28;20038;-44
2022/02/25 10:48:38;;;;;;;6.05;0.80;;;7.70;99.90;;;;;;20679735;28;20079;-44
2022/02/25 10:58:51;;;;;;;12.73;1.48;;;7.50;99.90;;;;;;20643919;28;20038;-44
2022/02/25 11:08:54;;;;;;;0.65;0.20;;;7.80;99.90;;;;;;20660737;28;20072;-44
2022/02/25 11:18:56;;;;;;;3.17;0.90;;;7.40;99.90;;;;;;20649647;28;20045;-44
2022/02/25 11:29:01;;;;;;;5.00;0.70;;;6.90;99.90;;;;;;20667687;28;20495;-44
2022/02/25 11:39:27;;;;;;;15.70;2.70;;;7.10;99.90;;;;;;20658345;28;20128;-45
2022/02/25 11:49:30;;;;;;;2.75;0.93;;;6.10;99.90;;;;;;20661463;28;20725;-44
2022/02/25 11:59:31;;;;;;;5.25;1.25;;;5.60;99.90;;;;;;20667528;28;20045;-44
2022/02/25 12:09:44;;;;;;;12.35;0.88;;;5.90;99.90;;;;;;20628701;28;20042;-45
2022/02/25 12:20:11;;;;;;;10.20;2.60;;;6.80;99.90;;;;;;20672085;28;20042;-45
2022/02/25 12:30:45;;;;;;;7.13;0.82;;;8.50;99.90;;;;;;20648398;28;20521;-46
2022/02/25 12:40:46;;;;;;;5.93;0.60;;;9.50;99.90;;;;;;20628284;28;21381;-45
2022/02/25 12:50:48;;;;;;;2.85;0.45;;;8.50;99.90;;;;;;20652280;28;20039;-45
2022/02/25 13:00:58;;;;;;;1.95;0.43;;;8.90;99.90;;;;;;20648418;28;20692;-45
2022/02/25 13:11:02;;;;;;;8.60;0.68;;;9.10;99.90;;;;;;20630034;28;20046;-45
2022/02/25 13:21:09;;;;;;;10.27;0.73;;;8.20;99.90;;;;;;20624865;28;20049;-45
2022/02/25 13:31:10;;;;;;;4.07;0.50;;;8.20;99.90;;;;;;20627915;28;20038;-45
2022/02/25 13:41:11;;;;;;;7.22;0.40;;;9.50;99.90;;;;;;20648299;28;20038;-45
2022/02/25 14:01:36;;;;;;;4.25;0.52;;;7.80;99.90;;;;;;20630415;28;20385;-45
2022/02/25 14:11:38;;;;;;;1.35;0.30;;;7.00;99.90;;;;;;20652907;28;20049;-45
2022/02/25 14:21:40;;;;;;;1.25;0.40;;;8.40;99.90;;;;;;20652037;28;20042;-45
2022/02/25 14:31:41;;;;;;;7.15;1.60;;;9.70;99.90;;;;;;20661375;28;20042;-45
2022/02/25 14:41:43;;;;;;;6.85;1.35;;;9.50;99.90;;;;;;20648922;28;20173;-45
2022/02/25 14:51:44;;;;;;;5.53;0.47;;;8.70;99.90;;;;;;20650829;28;20038;-45
2022/02/25 15:01:46;;;;;;;10.63;0.95;;;8.90;99.90;;;;;;20643338;28;20093;-45
2022/02/25 15:11:47;;;;;;;3.47;0.57;;;8.50;99.90;;;;;;20608160;28;20049;-45
2022/02/25 15:21:48;;;;;;;2.53;0.43;;;8.90;99.90;;;;;;20643503;28;20057;-45
2022/02/25 15:31:49;;;;;;;3.35;0.65;;;8.90;99.90;;;;;;20624701;28;20053;-45
2022/02/25 15:41:50;;;;;;;5.05;0.40;;;8.60;99.90;;;;;;20619085;28;20046;-45
2022/02/25 15:51:52;;;;;;;3.47;0.93;;;8.40;99.90;;;;;;20649903;28;20042;-45
2022/02/25 16:01:53;;;;;;;3.08;0.43;;;8.00;99.90;;;;;;20618764;28;20442;-45
2022/02/25 16:11:57;;;;;;;3.35;0.50;;;7.80;99.90;;;;;;20636257;28;20042;-45
2022/02/25 16:21:58;;;;;;;2.97;0.40;;;7.70;99.90;;;;;;20610630;28;20502;-45
2022/02/25 16:31:59;;;;;;;0.70;0.38;;;7.40;99.90;;;;;;20645583;28;20046;-45
2022/02/25 16:42:01;;;;;;;4.82;1.55;;;7.30;99.90;;;;;;20640654;28;20085;-45
2022/02/25 16:52:03;;;;;;;1.45;0.80;;;7.30;99.90;;;;;;20655822;28;20038;-45
2022/02/25 17:02:04;;;;;;;2.55;0.65;;;7.20;99.90;;;;;;20667525;28;20053;-45
2022/02/25 17:12:07;;;;;;;7.95;1.10;;;7.10;99.90;;;;;;20662725;28;20037;-45
2022/02/25 17:22:09;;;;;;;4.30;1.05;;;6.90;99.90;;;;;;20669856;28;20057;-45
2022/02/25 17:32:10;;;;;;;3.80;0.95;;;6.80;99.90;;;;;;20667906;28;20034;-45
2022/02/25 17:42:11;;;;;;;3.95;0.75;;;6.80;99.90;;;;;;20655094;28;20057;-45
2022/02/25 17:52:12;;;;;;;4.13;0.50;;;6.70;99.90;;;;;;20664524;28;20041;-45
2022/02/25 18:02:15;;;;;;;4.38;1.27;;;6.60;99.90;;;;;;20670073;28;20050;-45
2022/02/25 18:12:16;;;;;;;4.07;1.73;;;6.40;99.90;;;;;;20658454;28;20054;-45
2022/02/25 18:22:17;;;;;;;5.55;1.25;;;6.40;99.90;;;;;;20661761;28;20045;-45
2022/02/25 18:32:18;;;;;;;5.47;0.93;;;6.40;99.90;;;;;;20655909;28;20042;-45
2022/02/25 18:42:19;;;;;;;4.78;1.30;;;6.30;99.90;;;;;;20632594;28;20760;-45
2022/02/25 18:52:20;;;;;;;8.10;2.53;;;6.10;99.90;;;;;;20661577;28;20057;-45
2022/02/25 19:02:22;;;;;;;8.40;2.30;;;5.90;99.90;;;;;;20646937;28;20505;-45
2022/02/25 19:12:23;;;;;;;3.00;1.35;;;5.80;99.90;;;;;;20654701;28;20290;-45
2022/02/25 19:22:24;;;;;;;8.90;2.83;;;5.70;99.90;;;;;;20664318;28;20053;-45
2022/02/25 19:32:25;;;;;;;8.60;3.00;;;5.50;99.90;;;;;;20650653;28;20529;-45
2022/02/25 19:42:26;;;;;;;7.70;2.03;;;5.30;99.90;;;;;;20655509;28;20038;-44
2022/02/25 19:52:28;;;;;;;5.85;1.63;;;5.20;99.90;;;;;;20643276;28;20053;-45
2022/02/25 20:02:31;;;;;;;2.50;0.90;;;5.10;99.90;;;;;;20656656;28;20057;-45
2022/02/25 20:12:32;;;;;;;2.75;1.50;;;5.10;99.90;;;;;;20651152;28;21019;-45
2022/02/25 20:22:34;;;;;;;3.70;1.48;;;5.10;99.90;;;;;;20658810;28;20394;-45
2022/02/25 20:32:37;;;;;;;4.35;2.30;;;5.10;99.90;;;;;;20598571;28;20042;-44
2022/02/25 20:42:38;;;;;;;11.20;1.23;;;5.00;99.90;;;;;;20649332;28;20046;-44
2022/02/25 20:52:40;;;;;;;5.65;1.83;;;4.70;99.90;;;;;;20643961;28;20585;-44
2022/02/25 21:02:41;;;;;;;8.60;2.47;;;4.50;99.90;;;;;;20648171;28;20043;-45
2022/02/25 21:12:44;;;;;;;2.55;1.02;;;4.20;99.90;;;;;;20643976;28;20058;-45
2022/02/25 21:22:45;;;;;;;5.13;2.53;;;4.00;99.90;;;;;;20635383;28;20065;-45
2022/02/25 21:32:47;;;;;;;7.70;3.30;;;3.80;99.90;;;;;;20643867;28;20965;-45
2022/02/25 21:42:49;;;;;;;6.00;2.50;;;3.70;99.90;;;;;;20647636;28;20207;-45
2022/02/25 21:52:56;;;;;;;7.22;2.13;;;3.70;99.90;;;;;;20638712;28;20046;-45
2022/02/25 22:02:57;;;;;;;2.58;1.27;;;3.60;99.90;;;;;;20642558;28;20429;-45
2022/02/25 22:12:58;;;;;;;5.35;0.95;;;3.40;99.90;;;;;;20662431;28;20042;-45
2022/02/25 22:23:05;;;;;;;2.50;0.93;;;3.30;99.90;;;;;;20641414;28;20050;-44
2022/02/25 22:33:08;;;;;;;3.40;1.10;;;3.30;99.90;;;;;;20656249;28;20021;-45
2022/02/25 22:43:09;;;;;;;5.45;1.13;;;3.20;99.90;;;;;;20650090;28;20053;-45
2022/02/25 23:03:30;;;;;;;1.63;0.60;;;3.10;99.90;;;;;;20650751;28;20653;-45
2022/02/25 23:13:31;;;;;;;2.85;1.02;;;3.00;99.90;;;;;;20671507;28;20041;-44
2022/02/25 23:23:33;;;;;;;5.32;1.10;;;2.90;99.90;;;;;;20653087;28;20046;-44
2022/02/25 23:33:34;;;;;;;2.60;1.33;;;2.70;99.90;;;;;;20664384;28;20414;-44
2022/02/25 23:43:35;;;;;;;3.08;0.80;;;2.70;99.90;;;;;;20663594;28;20529;-45
2022/02/25 23:53:36;;;;;;;2.63;1.05;;;2.60;99.90;;;;;;20657550;28;20041;-44
